Time;durP1;ratioP1;P1;durP2;ratioP2;P2;SDS_P1;SDS_P2;PMS_P1;PMS_P2;Temp;Humidity;BMP_temperature;BMP_pressure;BME280_temperature;BME280_humidity;BME280_pressure;Samples;Min_cycle;Max_cycle;Signal;HPM_P1;HPM_P2
2023/10/16 00:00:29;;;;;;;105.75;100.88;;;;;;;12.07;58.04;102336.34;4940310;29;20502;-75
2023/10/16 00:02:59;;;;;;;106.72;102.10;;;;;;;12.07;57.97;102330.06;4946066;29;20042;-76
2023/10/16 00:05:31;;;;;;;111.38;106.55;;;;;;;12.06;58.10;102333.81;4945542;28;20069;-78
2023/10/16 00:07:57;;;;;;;107.00;102.30;;;;;;;12.04;58.27;102331.31;4948775;29;20562;-75
2023/10/16 00:10:24;;;;;;;109.55;104.78;;;;;;;12.03;58.02;102331.53;4946993;29;20118;-77
2023/10/16 00:12:50;;;;;;;114.18;109.20;;;;;;;12.03;57.95;102335.09;4943367;28;20031;-77
2023/10/16 00:15:16;;;;;;;107.05;101.97;;;;;;;12.01;58.18;102329.03;4946822;29;20439;-77
2023/10/16 00:17:43;;;;;;;108.47;103.65;;;;;;;12.01;58.06;102334.47;4950735;29;20035;-75
2023/10/16 00:20:24;;;;;;;106.47;101.78;;;;;;;11.99;58.08;102328.41;4943145;29;20039;-80
2023/10/16 00:22:50;;;;;;;112.35;107.40;;;;;;;11.99;58.06;102338.41;4944721;28;20047;-77
2023/10/16 00:25:16;;;;;;;100.93;96.28;;;;;;;11.98;58.05;102334.06;4947791;28;20110;-76
2023/10/16 00:27:42;;;;;;;112.25;107.28;;;;;;;11.97;58.03;102332.38;4945176;29;20076;-76
2023/10/16 00:30:08;;;;;;;106.50;101.90;;;;;;;11.95;58.08;102327.19;4948371;28;20073;-75
2023/10/16 00:32:37;;;;;;;103.72;99.18;;;;;;;11.94;57.90;102324.69;4945261;28;20174;-76
2023/10/16 00:35:08;;;;;;;;;;;;;;;11.93;58.09;102332.00;4951402;29;20055;-74
2023/10/16 00:37:34;;;;;;;101.60;97.15;;;;;;;11.91;57.81;102331.38;4952465;28;20416;-81
2023/10/16 00:40:00;;;;;;;109.28;104.50;;;;;;;11.90;58.16;102327.00;4944075;29;20039;-79
2023/10/16 00:42:26;;;;;;;110.57;105.70;;;;;;;11.89;58.09;102325.31;4946251;29;20040;-76
2023/10/16 00:44:59;;;;;;;101.60;97.13;;;;;;;11.88;58.01;102320.97;4938593;29;20061;-76
2023/10/16 00:47:25;;;;;;;110.32;105.63;;;;;;;11.87;57.87;102324.72;4938791;29;20114;-77
2023/10/16 00:49:51;;;;;;;107.75;102.95;;;;;;;11.85;58.06;102319.47;4943322;29;20208;-77
2023/10/16 00:52:18;;;;;;;100.38;95.90;;;;;;;11.85;58.03;102324.91;4943335;29;20066;-80
2023/10/16 00:54:46;;;;;;;105.70;100.70;;;;;;;11.84;57.95;102316.97;4937253;29;20073;-75
2023/10/16 00:57:13;;;;;;;102.50;98.00;;;;;;;11.83;57.87;102316.16;4948734;28;20039;-76
2023/10/16 00:59:41;;;;;;;110.35;105.22;;;;;;;11.82;58.29;102317.22;4945019;29;20125;-77
2023/10/16 01:02:14;;;;;;;104.75;100.22;;;;;;;11.81;57.64;102312.81;4951962;29;20039;-75
2023/10/16 01:04:40;;;;;;;98.75;94.38;;;;;;;11.81;58.09;102312.00;4952312;29;20454;-78
2023/10/16 01:07:06;;;;;;;98.57;94.20;;;;;;;11.79;58.03;102312.22;4944875;28;20040;-78
2023/10/16 01:09:39;;;;;;;104.97;100.43;;;;;;;11.78;58.02;102318.66;4952679;29;20185;-77
2023/10/16 01:12:08;;;;;;;106.50;101.50;;;;;;;11.78;58.37;102318.66;4949566;29;20488;-76
2023/10/16 01:14:37;;;;;;;102.05;97.47;;;;;;;11.77;57.88;102322.44;4940748;29;20131;-78
2023/10/16 01:17:04;;;;;;;100.38;95.95;;;;;;;11.76;57.96;102319.91;4943885;29;20114;-77
2023/10/16 01:19:30;;;;;;;105.28;100.75;;;;;;;11.74;58.01;102312.00;4948751;29;20046;-75
2023/10/16 01:21:58;;;;;;;101.10;96.60;;;;;;;11.74;58.00;102314.72;4949573;29;20039;-77
2023/10/16 01:24:24;;;;;;;101.10;96.72;;;;;;;11.73;58.07;102314.94;4949149;28;20055;-78
2023/10/16 01:26:49;;;;;;;113.55;108.40;;;;;;;11.72;57.99;102307.84;4943901;29;20433;-78
2023/10/16 01:29:15;;;;;;;111.47;106.68;;;;;;;11.72;57.91;102305.13;4922102;29;20150;-74
2023/10/16 01:31:44;;;;;;;106.15;101.55;;;;;;;11.69;57.91;102299.13;4944255;29;20042;-76
2023/10/16 01:34:13;;;;;;;110.55;105.63;;;;;;;11.70;57.97;102302.66;4946265;29;20415;-75
2023/10/16 01:36:45;;;;;;;;;;;;;;;11.68;57.81;102293.91;4935644;29;20043;-76
2023/10/16 01:39:47;;;;;;;96.20;91.93;;;;;;;11.66;57.97;102299.53;4946948;29;19925;-76
2023/10/16 01:41:56;;;;;;;99.28;94.70;;;;;;;11.63;57.75;102299.97;4948290;28;20054;-74
2023/10/16 01:44:21;;;;;;;104.57;99.97;;;;;;;11.63;58.00;102304.53;4942926;29;20043;-76
2023/10/16 01:46:47;;;;;;;105.45;100.60;;;;;;;11.62;57.94;102300.19;4939352;29;20372;-76
2023/10/16 01:49:13;;;;;;;104.13;99.60;;;;;;;11.61;57.96;102301.22;4934092;29;20063;-75
2023/10/16 01:51:40;;;;;;;107.35;102.72;;;;;;;11.60;58.12;102300.38;4946975;29;20024;-75
2023/10/16 01:54:11;;;;;;;107.93;103.25;;;;;;;11.59;58.02;102304.16;4941241;29;20132;-74
2023/10/16 01:56:37;;;;;;;104.72;100.00;;;;;;;11.58;57.97;102302.47;4946569;29;20039;-76
2023/10/16 01:59:02;;;;;;;109.35;104.47;;;;;;;11.57;57.98;102298.09;4938792;28;20127;-75
2023/10/16 02:01:28;;;;;;;105.78;101.07;;;;;;;11.56;57.98;102298.31;4943411;29;20483;-74
2023/10/16 02:03:53;;;;;;;104.00;98.03;;;;;;;11.56;58.13;102287.47;4940356;29;20445;-75
2023/10/16 02:06:19;;;;;;;98.60;94.13;;;;;;;11.56;57.80;102288.31;4945184;28;20056;-76
2023/10/16 02:08:47;;;;;;;98.85;94.53;;;;;;;11.55;57.68;102283.94;4939887;29;20491;-76
2023/10/16 02:11:13;;;;;;;105.95;101.35;;;;;;;11.54;57.93;102285.00;4943576;28;20094;-76
2023/10/16 02:13:43;;;;;;;105.10;100.57;;;;;;;11.53;57.94;102277.91;4942083;29;20044;-75
2023/10/16 02:16:12;;;;;;;105.22;100.57;;;;;;;11.53;57.96;102282.50;4933165;29;20046;-77
2023/10/16 02:18:40;;;;;;;101.30;96.88;;;;;;;11.52;58.05;102278.97;4947087;28;20089;-76
2023/10/16 02:21:12;;;;;;;103.70;99.18;;;;;;;11.51;57.82;102280.00;4938318;29;20745;-78
2023/10/16 02:23:48;;;;;;;102.65;98.10;;;;;;;11.51;58.08;102276.47;4939540;29;20127;-78
2023/10/16 02:26:18;;;;;;;107.68;102.85;;;;;;;11.49;57.81;102273.97;4944379;29;20381;-74
2023/10/16 02:28:46;;;;;;;97.20;92.78;;;;;;;11.47;58.07;102270.66;4950186;29;20078;-75
2023/10/16 02:31:14;;;;;;;104.20;99.47;;;;;;;11.46;57.92;102268.97;4944970;29;20476;-74
2023/10/16 02:33:46;;;;;;;99.55;95.20;;;;;;;11.45;57.80;102275.44;4932737;29;20059;-77
2023/10/16 02:36:15;;;;;;;102.25;97.75;;;;;;;11.44;58.24;102280.03;4946706;29;20038;-74
2023/10/16 02:38:41;;;;;;;95.35;91.20;;;;;;;11.42;57.83;102276.69;4942173;28;20428;-77
2023/10/16 02:41:08;;;;;;;102.60;97.95;;;;;;;11.43;57.88;102272.09;4946398;29;20126;-75
2023/10/16 02:43:37;;;;;;;99.65;95.10;;;;;;;11.42;57.96;102273.16;4951016;29;20036;-76
2023/10/16 02:46:04;;;;;;;113.25;108.25;;;;;;;11.41;58.00;102269.59;4939543;28;20044;-77
2023/10/16 02:48:30;;;;;;;105.95;101.28;;;;;;;11.39;57.76;102266.28;4944107;29;20036;-76
2023/10/16 02:50:59;;;;;;;100.35;95.68;;;;;;;11.39;57.95;102269.00;4926682;29;20042;-75
2023/10/16 02:53:29;;;;;;;102.38;97.93;;;;;;;11.37;58.04;102271.06;4943736;29;20042;-75
2023/10/16 02:55:58;;;;;;;102.03;97.53;;;;;;;11.36;58.04;102265.88;4946288;28;20119;-75
2023/10/16 02:58:30;;;;;;;98.70;94.40;;;;;;;11.37;58.01;102270.25;4949976;28;20043;-75
2023/10/16 03:00:57;;;;;;;103.43;98.78;;;;;;;11.36;58.03;102269.41;4950203;29;20047;-76
2023/10/16 03:03:26;;;;;;;96.32;92.05;;;;;;;11.33;58.10;102264.41;4946673;28;20051;-77
2023/10/16 03:05:56;;;;;;;99.63;95.28;;;;;;;11.33;58.13;102259.00;4945648;29;20065;-76
2023/10/16 03:08:29;;;;;;;99.15;94.82;;;;;;;11.31;57.91;102258.38;4947338;29;20036;-77
2023/10/16 03:10:55;;;;;;;100.82;96.30;;;;;;;11.31;57.83;102258.38;4948975;29;20062;-77
2023/10/16 03:13:21;;;;;;;99.78;95.18;;;;;;;11.31;57.81;102257.56;4948225;28;20036;-76
2023/10/16 03:15:47;;;;;;;99.63;95.13;;;;;;;11.30;57.97;102261.31;4941783;28;20036;-81
2023/10/16 03:18:22;;;;;;;103.45;98.90;;;;;;;11.28;58.02;102261.50;4924489;29;20036;-77
2023/10/16 03:21:00;;;;;;;97.63;93.32;;;;;;;11.29;57.85;102262.34;4948195;28;20039;-77
2023/10/16 03:23:28;;;;;;;;;;;;;;;11.26;57.96;102258.19;4945319;29;20066;-80
2023/10/16 03:25:56;;;;;;;90.53;86.50;;;;;;;11.24;57.89;102260.28;4945515;29;19930;-76
2023/10/16 03:28:21;;;;;;;97.57;93.18;;;;;;;11.23;58.08;102258.59;4949783;29;20298;-77
2023/10/16 03:30:47;;;;;;;102.28;97.88;;;;;;;11.21;57.80;102256.13;4946404;29;20087;-77
2023/10/16 03:33:16;;;;;;;97.03;92.43;;;;;;;11.21;57.97;102257.97;4938215;29;20138;-75
2023/10/16 03:35:45;;;;;;;99.97;95.57;;;;;;;11.21;57.91;102255.28;4944754;28;20039;-75
2023/10/16 03:38:11;;;;;;;96.88;92.63;;;;;;;11.20;57.97;102249.03;4946996;28;20036;-77
2023/10/16 03:40:36;;;;;;;96.05;91.78;;;;;;;11.19;57.87;102250.09;4949547;29;20400;-76
2023/10/16 03:43:02;;;;;;;100.63;96.03;;;;;;;11.19;57.92;102250.09;4947530;28;20046;-77
2023/10/16 03:45:28;;;;;;;101.53;97.05;;;;;;;11.18;58.07;102253.00;4949064;29;20429;-75
2023/10/16 03:47:57;;;;;;;107.40;102.70;;;;;;;11.17;57.81;102254.03;4954000;29;20183;-76
2023/10/16 03:50:34;;;;;;;104.10;99.47;;;;;;;11.15;57.67;102251.53;4950314;28;20042;-74
2023/10/16 03:53:03;;;;;;;101.60;97.07;;;;;;;11.15;57.92;102250.72;4946824;28;20035;-78
2023/10/16 03:55:31;;;;;;;98.97;94.57;;;;;;;11.15;57.92;102253.41;4945098;28;20101;-75
2023/10/16 03:57:57;;;;;;;99.20;94.80;;;;;;;11.12;57.98;102249.25;4936189;29;20094;-77
2023/10/16 04:03:09;;;;;;;97.15;92.35;;;;;;;11.11;57.78;102247.56;4943679;29;20101;-77
2023/10/16 04:05:45;;;;;;;96.18;92.00;;;;;;;11.10;57.82;102248.63;4940106;29;20056;-77
2023/10/16 04:08:14;;;;;;;98.13;92.93;;;;;;;11.10;57.96;102247.81;4946700;29;20571;-78
2023/10/16 04:10:46;;;;;;;97.10;92.88;;;;;;;11.10;57.96;102248.63;4947456;29;20042;-76
2023/10/16 04:13:15;;;;;;;100.57;96.05;;;;;;;11.09;57.88;102243.41;4946950;29;20043;-77
2023/10/16 04:34:39;;;;;;;96.55;92.05;;;;;;;10.98;57.76;102237.59;4946390;29;20048;-76
2023/10/16 04:50:31;;;;;;;92.97;88.75;;;;;;;10.92;57.69;102229.50;4946306;29;20035;-77
2023/10/16 05:06:15;;;;;;;92.15;87.95;;;;;;;10.84;57.93;102214.34;4946515;28;20110;-74
2023/10/16 05:19:53;;;;;;;88.25;84.40;;;;;;;10.78;57.85;102210.56;4946074;29;20055;-75
2023/10/16 06:14:37;;;;;;;93.10;88.95;;;;;;;10.59;57.87;102197.91;4934362;29;20050;-75
2023/10/16 06:17:13;;;;;;;91.88;87.82;;;;;;;10.59;57.92;102197.91;4951460;29;20035;-76
2023/10/16 06:19:42;;;;;;;89.93;85.88;;;;;;;10.58;57.83;102209.75;4937380;29;20047;-75
2023/10/16 06:22:08;;;;;;;91.63;87.63;;;;;;;10.58;57.72;102204.34;4937874;28;20539;-76
2023/10/16 06:24:38;;;;;;;91.90;87.82;;;;;;;10.57;57.91;102203.50;4934456;29;20078;-75
2023/10/16 06:27:41;;;;;;;84.88;81.00;;;;;;;10.58;57.84;102207.03;4934979;29;20047;-74
2023/10/16 06:29:57;;;;;;;95.97;91.78;;;;;;;10.57;57.85;102200.81;4938861;29;20479;-74
2023/10/16 06:32:35;;;;;;;99.90;95.40;;;;;;;10.55;57.85;102202.06;4951856;29;20039;-75
2023/10/16 06:35:01;;;;;;;89.35;85.38;;;;;;;10.55;57.67;102204.75;4938914;28;20102;-73
2023/10/16 06:37:31;;;;;;;92.50;88.30;;;;;;;10.55;57.87;102219.09;4945969;28;20083;-74
2023/10/16 06:40:01;;;;;;;90.97;86.47;;;;;;;10.55;57.76;102226.38;4945635;28;20089;-74
2023/10/16 06:42:29;;;;;;;95.50;90.85;;;;;;;10.54;57.89;102219.31;4945920;28;20403;-75
2023/10/16 06:44:55;;;;;;;92.97;88.82;;;;;;;10.53;57.71;102213.09;4941857;28;20035;-73
2023/10/16 06:47:35;;;;;;;96.93;92.32;;;;;;;10.54;57.68;102216.63;4944474;28;20495;-73
2023/10/16 06:52:55;;;;;;;92.05;87.93;;;;;;;10.51;57.89;102219.72;4949366;28;20126;-76
2023/10/16 06:55:21;;;;;;;93.35;89.05;;;;;;;10.51;58.09;102223.25;4945384;28;20049;-75
2023/10/16 06:57:47;;;;;;;92.35;88.18;;;;;;;10.50;57.97;102216.16;4947780;28;20478;-75
2023/10/16 07:00:24;;;;;;;89.57;85.53;;;;;;;10.50;57.89;102221.56;4947891;28;20035;-74
2023/10/16 07:02:54;;;;;;;88.25;83.85;;;;;;;10.50;57.91;102220.75;4951258;28;20435;-75
2023/10/16 07:05:24;;;;;;;93.45;88.95;;;;;;;10.49;58.03;102219.09;4969629;28;20051;-76
2023/10/16 07:07:52;;;;;;;93.28;89.07;;;;;;;10.49;57.89;102224.50;4949013;28;20400;-76
2023/10/16 07:10:17;;;;;;;94.60;90.35;;;;;;;10.48;57.95;102220.97;4946153;28;20952;-73
2023/10/16 07:13:02;;;;;;;95.32;91.07;;;;;;;10.47;57.87;102222.00;4943952;28;20087;-76
2023/10/16 07:15:29;;;;;;;94.25;89.82;;;;;;;10.47;58.10;102222.00;4941894;28;20039;-75
2023/10/16 07:18:13;;;;;;;96.22;91.90;;;;;;;10.47;57.86;102221.16;4944334;28;20070;-78
2023/10/16 07:23:24;;;;;;;91.68;87.40;;;;;;;10.45;57.88;102228.63;4947613;28;20089;-76
2023/10/16 07:28:19;;;;;;;95.78;91.38;;;;;;;10.44;57.82;102221.59;4944160;28;20055;-76
2023/10/16 07:30:45;;;;;;;98.97;94.38;;;;;;;10.44;57.98;102218.88;4947652;28;20069;-74
2023/10/16 07:33:17;;;;;;;99.03;94.45;;;;;;;10.45;58.17;102224.06;4929521;28;20158;-76
2023/10/16 07:35:44;;;;;;;92.70;88.50;;;;;;;10.44;57.88;102217.00;4944873;28;20731;-75
2023/10/16 07:38:19;;;;;;;96.13;91.50;;;;;;;10.43;58.01;102217.22;4957592;28;20110;-75
2023/10/16 07:40:51;;;;;;;87.57;83.63;;;;;;;10.42;58.07;102216.38;4948688;28;20069;-75
2023/10/16 07:43:26;;;;;;;98.93;94.32;;;;;;;10.43;57.92;102220.72;4945657;28;20475;-75
2023/10/16 07:45:53;;;;;;;89.43;85.18;;;;;;;10.43;57.88;102218.03;4932952;28;20046;-78
2023/10/16 07:48:20;;;;;;;90.60;86.18;;;;;;;10.43;57.83;102215.31;4949160;28;20102;-75
2023/10/16 07:50:50;;;;;;;94.72;90.32;;;;;;;10.44;57.80;102213.47;4946245;28;20039;-78
2023/10/16 07:53:18;;;;;;;93.03;88.38;;;;;;;10.43;57.94;102214.50;4946627;28;20039;-79
2023/10/16 07:55:55;;;;;;;93.72;89.43;;;;;;;10.43;57.92;102218.03;4946100;28;20114;-74
2023/10/16 07:58:23;;;;;;;94.03;89.20;;;;;;;10.42;58.20;102216.38;4961245;28;20027;-76
2023/10/16 08:03:36;;;;;;;88.13;84.03;;;;;;;10.42;57.94;102213.69;4949010;28;20074;-75
2023/10/16 08:06:05;;;;;;;88.22;84.05;;;;;;;10.42;58.10;102213.69;4946398;28;20043;-75
2023/10/16 08:08:36;;;;;;;89.95;85.65;;;;;;;10.44;57.92;102216.19;4951703;28;20071;-76
2023/10/16 08:11:12;;;;;;;95.18;90.55;;;;;;;10.44;57.90;102222.41;4948610;28;20189;-77
2023/10/16 08:13:46;;;;;;;87.07;83.18;;;;;;;10.45;57.85;102220.53;4961558;28;20050;-75
2023/10/16 08:16:17;;;;;;;89.57;85.38;;;;;;;10.45;57.54;102218.66;4945958;28;20050;-74
2023/10/16 08:18:48;;;;;;;94.47;90.13;;;;;;;10.46;57.86;102216.78;4951213;28;20087;-76
2023/10/16 08:21:24;;;;;;;93.55;89.28;;;;;;;10.47;57.88;102213.06;4936248;28;20035;-77
2023/10/16 08:23:54;;;;;;;89.32;85.13;;;;;;;10.48;57.85;102214.72;4959436;28;20082;-71
2023/10/16 08:26:28;;;;;;;88.13;83.97;;;;;;;10.48;57.75;102212.88;4947100;28;20610;-74
2023/10/16 08:29:11;;;;;;;88.30;83.95;;;;;;;10.47;57.67;102213.88;4959847;28;20039;-75
2023/10/16 08:31:41;;;;;;;90.38;85.32;;;;;;;10.48;57.63;102210.16;4946131;28;20416;-73
2023/10/16 08:34:08;;;;;;;97.47;92.47;;;;;;;10.49;57.63;102208.28;4955081;28;20035;-73
2023/10/16 08:36:33;;;;;;;88.68;84.32;;;;;;;10.48;57.71;102212.88;4949997;28;20045;-72
2023/10/16 08:39:08;;;;;;;87.32;82.88;;;;;;;10.49;57.72;102202.88;4950731;28;20118;-72
2023/10/16 08:42:00;;;;;;;91.63;87.10;;;;;;;10.51;57.60;102208.94;4951731;28;20051;-74
2023/10/16 08:44:28;;;;;;;92.68;87.45;;;;;;;10.50;57.55;102205.38;4945217;28;20046;-74
2023/10/16 08:49:27;;;;;;;90.63;86.18;;;;;;;10.51;57.70;102208.94;4948141;28;20043;-74
2023/10/16 08:52:03;;;;;;;88.05;83.63;;;;;;;10.52;57.47;102205.19;4950847;28;20097;-74
2023/10/16 08:57:16;;;;;;;85.10;80.93;;;;;;;10.52;57.65;102207.88;4945639;28;20052;-74
2023/10/16 08:59:43;;;;;;;86.68;82.55;;;;;;;10.52;57.82;102207.88;4946830;28;20650;-75
2023/10/16 09:02:13;;;;;;;84.53;80.05;;;;;;;10.53;57.91;102209.53;4942688;28;20530;-73
2023/10/16 09:04:42;;;;;;;93.40;88.40;;;;;;;10.52;57.92;102210.56;4947985;28;20055;-73
2023/10/16 09:07:11;;;;;;;87.45;83.20;;;;;;;10.52;57.89;102214.09;4945671;28;20032;-73
2023/10/16 09:09:41;;;;;;;83.47;79.18;;;;;;;10.53;58.10;102210.38;4947098;28;20142;-72
2023/10/16 09:12:10;;;;;;;85.28;81.10;;;;;;;10.54;58.17;102213.91;4945707;28;20051;-72
2023/10/16 09:14:37;;;;;;;84.32;80.15;;;;;;;10.52;58.50;102216.81;4949692;28;20403;-72
2023/10/16 09:17:06;;;;;;;;;;;;;;;10.53;58.60;102220.34;4946689;28;20110;-74
2023/10/16 09:19:35;;;;;;;85.25;81.07;;;;;;;10.52;58.33;102210.56;4947622;28;19977;-75
2023/10/16 09:22:04;;;;;;;83.85;79.68;;;;;;;10.51;58.68;102207.06;4948217;28;20035;-74
2023/10/16 09:24:33;;;;;;;86.40;82.13;;;;;;;10.50;58.80;102202.66;4947095;28;20043;-75
2023/10/16 09:26:59;;;;;;;;;;;;;;;10.52;59.06;102210.56;4949356;28;20403;-73
2023/10/16 09:29:26;;;;;;;85.88;81.57;;;;;;;10.51;58.99;102209.75;4946525;28;19921;-73
2023/10/16 09:31:52;;;;;;;87.90;82.57;;;;;;;10.50;59.09;102208.06;4949305;28;20043;-74
2023/10/16 09:34:25;;;;;;;92.15;87.55;;;;;;;10.51;59.50;102208.94;4947793;28;20517;-73
2023/10/16 09:39:49;;;;;;;91.50;86.25;;;;;;;10.55;59.76;102219.09;4945147;28;20066;-73
2023/10/16 09:42:15;;;;;;;83.30;79.18;;;;;;;10.57;60.00;102213.50;4950984;28;20426;-73
2023/10/16 09:45:29;;;;;;;92.25;87.75;;;;;;;10.56;60.42;102212.66;4959856;28;20081;-73
2023/10/16 09:47:38;;;;;;;89.57;85.38;;;;;;;10.60;60.39;102207.66;4945996;28;20391;-74
2023/10/16 09:50:16;;;;;;;82.35;78.55;;;;;;;10.62;60.69;102205.59;4947517;28;20039;-74
2023/10/16 09:52:45;;;;;;;88.70;84.28;;;;;;;10.64;60.67;102200.81;4946141;28;20436;-73
2023/10/16 09:55:12;;;;;;;87.68;83.30;;;;;;;10.68;60.84;102202.06;4948748;28;20045;-75
2023/10/16 09:57:46;;;;;;;92.55;88.07;;;;;;;10.71;61.29;102201.66;4945745;28;20522;-76
2023/10/16 10:03:13;;;;;;;90.55;86.22;;;;;;;10.77;61.61;102202.69;4944287;28;20069;-74
2023/10/16 10:08:39;;;;;;;94.97;89.95;;;;;;;10.85;61.80;102207.06;4948343;28;20610;-73
2023/10/16 10:11:17;;;;;;;91.47;87.07;;;;;;;10.86;62.09;102190.63;4954638;28;20147;-73
2023/10/16 10:14:09;;;;;;;95.25;90.40;;;;;;;10.89;62.12;102198.31;4955397;28;20034;-74
2023/10/16 10:16:35;;;;;;;89.85;85.55;;;;;;;10.93;62.21;102199.56;4945044;28;20054;-74
2023/10/16 10:19:04;;;;;;;93.60;88.85;;;;;;;10.96;62.11;102196.44;4943226;28;20352;-73
2023/10/16 10:21:44;;;;;;;88.90;84.20;;;;;;;10.99;62.31;102195.19;4948880;28;20031;-73
2023/10/16 10:24:15;;;;;;;87.93;83.80;;;;;;;11.02;62.53;102197.47;4946468;28;20051;-73
2023/10/16 10:26:48;;;;;;;91.30;86.03;;;;;;;11.05;62.57;102202.47;4947790;28;20134;-73
2023/10/16 10:29:13;;;;;;;91.93;87.60;;;;;;;11.08;62.90;102201.22;4946386;28;20131;-74
2023/10/16 10:31:51;;;;;;;94.07;89.07;;;;;;;11.11;63.06;102204.31;4950316;28;20125;-74
2023/10/16 10:34:28;;;;;;;92.30;87.97;;;;;;;11.14;63.18;102198.50;4948092;28;20039;-73
2023/10/16 10:36:54;;;;;;;96.55;91.40;;;;;;;11.17;63.28;102200.78;4948348;28;20035;-73
2023/10/16 10:39:20;;;;;;;93.57;88.82;;;;;;;11.20;63.51;102194.94;4946615;28;20082;-73
2023/10/16 10:41:50;;;;;;;97.78;92.65;;;;;;;11.22;63.64;102195.56;4944559;28;20027;-73
2023/10/16 10:44:21;;;;;;;97.05;92.72;;;;;;;11.24;63.11;102193.50;4944800;28;20035;-76
2023/10/16 10:46:49;;;;;;;97.13;92.53;;;;;;;11.26;62.99;102195.97;4945705;28;20114;-73
2023/10/16 10:49:18;;;;;;;90.53;86.32;;;;;;;11.25;63.13;102192.44;4948324;28;20046;-72
2023/10/16 10:51:46;;;;;;;93.20;88.75;;;;;;;11.27;63.41;102190.34;4943072;28;20043;-74
2023/10/16 10:54:14;;;;;;;97.75;93.13;;;;;;;11.28;63.42;102188.47;4961001;28;20050;-73
2023/10/16 10:56:48;;;;;;;95.53;91.00;;;;;;;11.30;63.34;102189.09;4947609;28;20031;-74
2023/10/16 10:59:47;;;;;;;96.43;91.97;;;;;;;11.33;63.10;102187.84;4951470;28;20039;-74
2023/10/16 11:04:47;;;;;;;97.00;92.20;;;;;;;11.36;63.22;102188.22;4947426;28;20059;-72
2023/10/16 11:07:23;;;;;;;96.05;91.70;;;;;;;11.37;63.40;102184.50;4946338;28;20044;-73
2023/10/16 11:09:49;;;;;;;101.78;97.03;;;;;;;11.41;63.53;102188.44;4948574;28;20050;-73
2023/10/16 11:12:15;;;;;;;99.65;95.00;;;;;;;11.44;63.56;102184.47;4945114;28;20028;-72
2023/10/16 11:14:40;;;;;;;100.10;95.50;;;;;;;11.46;63.48;102180.53;4944066;28;21655;-73
2023/10/16 11:17:06;;;;;;;101.28;96.57;;;;;;;11.49;63.54;102184.69;4947246;28;20103;-73
2023/10/16 11:19:49;;;;;;;102.72;98.15;;;;;;;11.52;63.48;102170.72;4963042;28;20048;-76
2023/10/16 11:22:22;;;;;;;102.25;97.53;;;;;;;11.56;63.56;102168.41;4946380;28;20494;-74
2023/10/16 11:24:48;;;;;;;106.00;101.13;;;;;;;11.60;63.54;102170.47;4949423;28;20072;-76
2023/10/16 11:27:16;;;;;;;101.95;97.43;;;;;;;11.63;63.24;102166.50;4951561;28;20548;-76
2023/10/16 11:29:42;;;;;;;102.88;98.15;;;;;;;11.65;63.23;102173.38;4952172;28;20490;-74
2023/10/16 11:32:14;;;;;;;102.03;97.43;;;;;;;11.68;62.91;102166.69;4950181;28;20043;-76
2023/10/16 11:34:50;;;;;;;103.47;98.78;;;;;;;11.71;63.13;102166.25;4951174;28;20032;-74
2023/10/16 11:37:19;;;;;;;101.78;97.10;;;;;;;11.74;63.04;102151.47;4947599;28;20030;-74
2023/10/16 11:39:45;;;;;;;;;;;;;;;11.77;62.80;102151.88;4966329;28;20461;-72
2023/10/16 11:42:13;;;;;;;99.05;94.22;;;;;;;11.76;62.53;102144.78;4963876;28;20009;-75
2023/10/16 11:44:40;;;;;;;97.18;92.15;;;;;;;11.77;62.73;102141.03;4953174;28;20046;-75
2023/10/16 11:47:16;;;;;;;98.20;93.47;;;;;;;11.80;62.71;102140.59;4950363;28;20027;-75
2023/10/16 11:49:53;;;;;;;98.30;93.38;;;;;;;11.83;62.72;102142.88;4963418;28;20035;-74
2023/10/16 11:52:19;;;;;;;100.53;95.75;;;;;;;11.88;63.11;102142.25;4947533;28;20118;-73
2023/10/16 11:54:52;;;;;;;103.95;99.05;;;;;;;11.91;62.57;102139.13;4955063;28;20032;-75
2023/10/16 11:57:17;;;;;;;102.50;97.90;;;;;;;11.94;62.82;102127.00;4962545;28;20062;-74
2023/10/16 11:59:44;;;;;;;101.72;97.05;;;;;;;11.98;62.69;102123.66;4946606;28;20062;-74
2023/10/16 12:02:12;;;;;;;105.05;99.97;;;;;;;12.02;62.32;102129.47;4950111;28;20067;-77
2023/10/16 12:04:41;;;;;;;;;;;;;;;12.05;62.18;102127.16;4940460;28;20400;-74
2023/10/16 12:07:12;;;;;;;98.53;93.93;;;;;;;12.08;62.29;102120.47;4948155;28;19926;-74
2023/10/16 12:09:42;;;;;;;103.45;98.85;;;;;;;12.10;62.16;102119.22;4949201;28;20087;-74
2023/10/16 12:12:08;;;;;;;107.40;101.57;;;;;;;12.12;61.82;102119.81;4945006;28;20119;-73
2023/10/16 12:14:37;;;;;;;105.47;100.78;;;;;;;12.15;61.68;102115.03;4947312;28;20506;-73
2023/10/16 12:17:06;;;;;;;104.78;100.15;;;;;;;12.17;61.52;102115.59;4949248;28;20038;-76
2023/10/16 12:19:33;;;;;;;109.38;104.38;;;;;;;12.18;61.51;102117.28;4966262;28;20062;-75
2023/10/16 12:22:00;;;;;;;103.95;99.25;;;;;;;12.19;61.37;102111.63;4933730;28;20043;-74
2023/10/16 12:24:26;;;;;;;108.63;103.85;;;;;;;12.22;61.47;102107.66;4947577;28;20098;-74
2023/10/16 12:26:52;;;;;;;106.97;101.88;;;;;;;12.26;61.54;102109.72;4946200;28;20067;-77
2023/10/16 12:29:18;;;;;;;107.53;102.57;;;;;;;12.29;61.48;102103.84;4950601;28;20046;-71
2023/10/16 12:31:43;;;;;;;109.63;104.32;;;;;;;12.34;61.51;102104.00;4948846;28;20035;-77
2023/10/16 12:34:11;;;;;;;108.43;103.38;;;;;;;12.36;61.20;102098.38;4946309;28;20058;-74
2023/10/16 12:36:42;;;;;;;109.72;104.60;;;;;;;12.39;61.37;102097.09;4958696;28;20104;-73
2023/10/16 12:39:16;;;;;;;103.47;98.88;;;;;;;12.42;61.22;102096.66;4949169;28;20134;-72
2023/10/16 12:41:42;;;;;;;111.07;106.13;;;;;;;12.43;61.37;102096.44;4960908;28;20040;-72
2023/10/16 12:44:09;;;;;;;115.85;110.65;;;;;;;12.46;61.49;102087.88;4948410;28;20491;-75
2023/10/16 12:46:38;;;;;;;115.15;109.75;;;;;;;12.48;61.49;102079.53;4947382;28;20043;-73
2023/10/16 12:49:07;;;;;;;109.88;104.75;;;;;;;12.52;61.11;102081.56;4949869;28;20064;-75
2023/10/16 12:51:38;;;;;;;110.45;105.63;;;;;;;12.53;61.27;102088.63;4960623;28;20035;-75
2023/10/16 12:54:06;;;;;;;107.65;102.90;;;;;;;12.57;61.00;102078.16;4947710;28;20373;-75
2023/10/16 12:56:32;;;;;;;109.32;104.53;;;;;;;12.59;61.14;102086.91;4954112;28;20041;-74
2023/10/16 12:59:03;;;;;;;110.57;105.68;;;;;;;12.60;60.67;102076.88;4950937;28;20452;-74
2023/10/16 13:01:29;;;;;;;105.35;100.72;;;;;;;12.61;60.77;102079.38;4948314;28;20050;-77
2023/10/16 13:03:59;;;;;;;110.25;105.30;;;;;;;12.62;60.89;102077.50;4948119;28;20055;-74
2023/10/16 13:06:28;;;;;;;115.78;110.28;;;;;;;12.63;60.72;102082.72;4947301;28;20046;-74
2023/10/16 13:08:53;;;;;;;;;;;;;;;12.64;60.75;102078.94;4944283;28;20027;-74
2023/10/16 13:11:19;;;;;;;106.13;101.38;;;;;;;12.66;60.72;102079.53;4931862;28;19952;-74
2023/10/16 13:13:45;;;;;;;112.60;107.57;;;;;;;12.67;60.64;102081.19;4948618;28;20706;-74
2023/10/16 13:16:10;;;;;;;112.25;106.75;;;;;;;12.70;60.51;102078.06;4953245;28;20038;-73
2023/10/16 13:18:36;;;;;;;117.25;112.13;;;;;;;12.71;60.44;102071.56;4954717;28;20039;-78
2023/10/16 13:21:06;;;;;;;111.15;106.15;;;;;;;12.72;60.49;102070.50;4958072;28;21021;-74
2023/10/16 13:23:36;;;;;;;113.13;107.97;;;;;;;12.75;60.17;102069.22;4955719;28;20038;-73
2023/10/16 13:26:03;;;;;;;111.68;106.43;;;;;;;12.77;60.42;102072.53;4952307;28;20252;-75
2023/10/16 13:28:30;;;;;;;114.93;109.93;;;;;;;12.80;60.12;102072.13;4953130;28;20037;-75
2023/10/16 13:30:55;;;;;;;108.00;103.18;;;;;;;12.82;60.27;102074.59;4951971;28;20035;-77
2023/10/16 13:33:21;;;;;;;117.10;111.90;;;;;;;12.84;60.31;102067.06;4950840;28;20035;-76
2023/10/16 13:35:46;;;;;;;108.35;103.30;;;;;;;12.86;60.07;102071.19;4949463;28;20460;-74